Norfolk, Virginia
Traffic Map
Current Weather Conditions
Norfolk, Virginia
Clear
Clear
60°
Feels Like: 60°
Wind Chill: 60° Ceiling: Unl
Heat Index: 60° Visibility: 10mi
Dew Point: 47° Wind: 3mph
Humidity: 62% Direction: 240° (WSW)
Pressure: 29.93in Gusts: 0mph
Raw Report DataKORF 242351Z AUTO 24003KT 10SM CLR 16/08 A2993 RMK AO2 SLP135 T01560083 10200 20156 53008 TSNO
Traffic Incident Summary
Active as of:
Severity:
Category:
InformationThere was an issue retrieving the traffic information for this location. Please try a different location or try again shortly.
Advertisements
Track Severe Weather on mobile